Pup — WDA9952 — position and weather

sailwx.info

Track history (hours):
 
Tides and Currents Weather Stations Pressure Air Temp Water Temp Dewpoint Dewpoint Depression Visibility Wind Speed Wind Dir Waves Ship Positions

Pup

Owner: MANSON CONSTRUCTION CO., SEATTLE, WA. More information available from US FCC via Universal Licensing System and Coast Guard Vessel Documentation Center.

Last reported at 2018-Jun-13 21:12 UTC. Time now 2018-Jun-18 19:05 UTC.
Position N 33°47' W 118°15'.

Length 13 m.

Type: Towing. MMSI: 366870730.

Date/timePositionNaut miles runAvg speedWind from/ knotsBaromVisibWave heightAir tempDewpointWater temp
2018-Jun-13 21:12N 33°47' W 118°15'0 0.0
2018-Jun-13 21:00N 33°47' W 118°15'0 0.0
2018-Jun-13 20:30N 33°47' W 118°15'0 0.0
2018-Jun-13 20:00N 33°47' W 118°15'0 0.0
2018-Jun-13 19:30N 33°47' W 118°15'0 0.0
2018-Jun-13 19:00N 33°47' W 118°15'1 2.5
2018-Jun-13 18:30N 33°46' W 118°13'1 1.6
2018-Jun-13 18:00N 33°45' W 118°13'3 5.3
2018-Jun-13 17:30N 33°43' W 118°15'2 3.2
2018-Jun-13 17:00N 33°44' W 118°15'0 0.2
2018-Jun-13 16:30N 33°44' W 118°15'2 3.2
2018-Jun-13 16:00N 33°43' W 118°15'3 5.4
2018-Jun-13 15:30N 33°45' W 118°13'0 0.0
2018-Jun-12 23:24N 33°45' W 118°13'0 0.0
2018-Jun-12 23:00N 33°45' W 118°13'0 0.0
2018-Jun-12 22:31N 33°45' W 118°13'0 0.0
2018-Jun-12 22:01N 33°45' W 118°13'0 0.1
2018-Jun-12 21:31N 33°45' W 118°13'0 0.0
2018-Jun-12 21:00N 33°45' W 118°13'0 0.1
2018-Jun-12 20:31N 33°45' W 118°13'0 0.0
2018-Jun-12 20:00N 33°45' W 118°13'0 0.0
2018-Jun-12 19:28N 33°45' W 118°13'0 0.0
2018-Jun-12 19:00N 33°45' W 118°13'0 0.1
2018-Jun-12 18:31N 33°45' W 118°13'0 0.0
2018-Jun-12 18:00N 33°45' W 118°13'2 4.5
2018-Jun-12 17:30N 33°43' W 118°14'2 3.1
2018-Jun-12 17:01N 33°45' W 118°15'0 0.1
2018-Jun-12 16:31N 33°45' W 118°15'0 0.4
2018-Jun-12 16:00N 33°44' W 118°15'2 3.1
2018-Jun-12 15:31N 33°43' W 118°15'3 5.2
2018-Jun-12 15:01N 33°45' W 118°13'0 0.1
2018-Jun-12 14:31N 33°45' W 118°13'0 0.0
2018-Jun-12 02:43N 33°45' W 118°13'0 0.0
2018-Jun-12 02:30N 33°45' W 118°13'0 0.0
2018-Jun-12 02:00N 33°45' W 118°13'0 0.0
2018-Jun-12 01:29N 33°45' W 118°13'0 0.0
2018-Jun-12 01:00N 33°45' W 118°13'0 0.1
2018-Jun-12 00:30N 33°45' W 118°13'0 0.1
2018-Jun-12 00:00N 33°45' W 118°13'0 0.1
2018-Jun-11 23:30N 33°45' W 118°13'0 0.0
2018-Jun-11 23:00N 33°45' W 118°13'0 0.0
2018-Jun-11 22:30N 33°45' W 118°13'0 0.4
2018-Jun-11 22:00N 33°45' W 118°13'0 0.4
2018-Jun-11 21:31N 33°45' W 118°13'0 0.0
2018-Jun-11 21:00N 33°45' W 118°13'0 0.1
2018-Jun-11 20:30N 33°45' W 118°13'0 0.0
2018-Jun-11 20:00N 33°45' W 118°13'1 2.0
2018-Jun-11 19:30N 33°45' W 118°15'0 0.0
2018-Jun-11 19:00N 33°45' W 118°15'0 0.3
2018-Jun-11 18:30N 33°45' W 118°15'0 0.2
2018-Jun-11 18:01N 33°45' W 118°14'0 0.2
2018-Jun-11 17:30N 33°45' W 118°15'0 0.1
2018-Jun-11 17:00N 33°45' W 118°15'1 2.0
2018-Jun-11 16:30N 33°45' W 118°13'0 0.0
2018-Jun-11 16:00N 33°45' W 118°13'0 0.0
2018-Jun-11 15:30N 33°45' W 118°13'0 0.0
2018-Jun-11 15:00N 33°45' W 118°13'0 0.0
2018-Jun-10 19:40N 33°45' W 118°13'0 0.0
2018-Jun-10 19:30N 33°45' W 118°13'0 0.2
2018-Jun-10 19:00N 33°45' W 118°14'0 0.0
2018-Jun-10 18:30N 33°45' W 118°14'0 0.2
2018-Jun-10 18:00N 33°45' W 118°13'0 0.0
2018-Jun-10 17:30N 33°45' W 118°13'1 1.1
2018-Jun-10 17:00N 33°45' W 118°14'1 1.1
2018-Jun-10 16:30N 33°45' W 118°13'0 0.0
2018-Jun-10 16:00N 33°45' W 118°13'0 0.0
2018-Jun-10 15:30N 33°45' W 118°13'0 0.3
2018-Jun-10 15:00N 33°45' W 118°14'0 0.5
2018-Jun-10 14:29N 33°45' W 118°13'0 0.0
2018-Jun-09 22:50N 33°45' W 118°13'0 0.4
2018-Jun-09 22:30N 33°45' W 118°13'0 0.2
2018-Jun-09 22:00N 33°45' W 118°13'0 0.0
2018-Jun-09 21:30N 33°45' W 118°13'0 0.4
2018-Jun-09 20:59N 33°45' W 118°14'0 0.2
2018-Jun-09 20:30N 33°45' W 118°13'0 0.1
2018-Jun-09 20:00N 33°45' W 118°13'0 0.0
2018-Jun-09 19:30N 33°45' W 118°13'0 0.0
2018-Jun-09 19:00N 33°45' W 118°13'0 0.2
2018-Jun-09 18:30N 33°45' W 118°14'0 0.2
2018-Jun-09 17:59N 33°45' W 118°13'0 0.0
2018-Jun-09 17:30N 33°45' W 118°13'0 0.0
2018-Jun-09 17:00N 33°45' W 118°13'0 0.0
2018-Jun-09 16:28N 33°45' W 118°13'0 0.2
2018-Jun-09 16:00N 33°45' W 118°14'0 0.2
2018-Jun-09 15:30N 33°45' W 118°13'0 0.0
2018-Jun-08 23:28N 33°45' W 118°13'0 0.4
2018-Jun-08 23:00N 33°45' W 118°14'1 1.4
2018-Jun-08 22:30N 33°45' W 118°14'1 1.8
2018-Jun-08 22:00N 33°45' W 118°13'0 0.0
2018-Jun-08 21:30N 33°45' W 118°13'1 2.0
2018-Jun-08 21:00N 33°45' W 118°15'0 0.2
2018-Jun-08 20:30N 33°45' W 118°14'0 0.1
2018-Jun-08 20:00N 33°45' W 118°14'0 0.0
2018-Jun-08 19:30N 33°45' W 118°14'1 2.0
2018-Jun-08 19:00N 33°45' W 118°13'1 1.1
2018-Jun-08 18:30N 33°45' W 118°14'0 0.9
2018-Jun-08 17:57N 33°45' W 118°14'1 1.5
2018-Jun-08 17:30N 33°45' W 118°14'0 0.9
2018-Jun-08 17:00N 33°45' W 118°13'1 2.1
2018-Jun-08 16:30N 33°45' W 118°14'0 0.9
2018-Jun-08 16:00N 33°45' W 118°14'1 1.1
2018-Jun-08 15:30N 33°45' W 118°13'0 0.0
2018-Jun-08 00:49N 33°45' W 118°13'0 0.2
2018-Jun-08 00:30N 33°45' W 118°13'1 1.1
2018-Jun-08 00:00N 33°45' W 118°14'0 0.8
2018-Jun-07 23:30N 33°45' W 118°15'1 1.9
2018-Jun-07 23:00N 33°45' W 118°13'0 0.1
2018-Jun-07 22:02N 33°45' W 118°13'0 4.4
2018-Jun-07 21:59N 33°45' W 118°14'1 1.8
2018-Jun-07 21:30N 33°45' W 118°15'0 0.0
2018-Jun-07 21:00N 33°45' W 118°15'1 1.9
2018-Jun-07 20:29N 33°45' W 118°13'0 0.1
2018-Jun-07 19:59N 33°45' W 118°13'0 0.1
2018-Jun-07 19:30N 33°45' W 118°13'0 0.1
2018-Jun-07 19:00N 33°45' W 118°13'0 0.1
2018-Jun-07 18:30N 33°45' W 118°13'0 0.2
2018-Jun-07 18:00N 33°45' W 118°14'0 0.0
2018-Jun-07 15:21N 33°45' W 118°13'1 2.1
2018-Jun-07 15:01N 33°45' W 118°14'1 0.0
2018-Jun-06 23:10N 33°45' W 118°13'0 0.4
2018-Jun-06 22:59N 33°45' W 118°13'0 0.0
2018-Jun-06 22:31N 33°45' W 118°13'0 0.5
2018-Jun-06 22:00N 33°45' W 118°14'0 0.2
2018-Jun-06 21:30N 33°45' W 118°14'0 0.0
2018-Jun-06 21:00N 33°45' W 118°14'0 0.0
2018-Jun-06 20:30N 33°45' W 118°14'1 1.6
2018-Jun-06 20:00N 33°45' W 118°14'1 1.6
2018-Jun-06 19:30N 33°45' W 118°14'1 1.8
2018-Jun-06 19:00N 33°45' W 118°14'0 0.2
2018-Jun-06 18:31N 33°45' W 118°14'1 1.7
2018-Jun-06 18:00N 33°45' W 118°14'0 0.9
2018-Jun-06 17:30N 33°45' W 118°14'0 0.9
2018-Jun-06 17:01N 33°45' W 118°14'0 0.0
2018-Jun-06 16:28N 33°45' W 118°14'1 1.8
2018-Jun-06 16:01N 33°45' W 118°13'0 0.1
2018-Jun-06 15:29N 33°45' W 118°14'0 0.0
2018-Jun-06 15:01N 33°45' W 118°14'0 0.0
2018-Jun-06 00:40N 33°45' W 118°13'1 5.5
2018-Jun-06 00:30N 33°45' W 118°14'0 0.5
2018-Jun-06 00:00N 33°45' W 118°15'0 0.3
2018-Jun-05 23:30N 33°45' W 118°14'0 0.3
2018-Jun-05 23:00N 33°45' W 118°15'0 0.4
2018-Jun-05 22:30N 33°45' W 118°14'1 1.8
2018-Jun-05 21:59N 33°45' W 118°13'0 0.1
2018-Jun-05 21:30N 33°45' W 118°13'0 0.1
2018-Jun-05 21:00N 33°45' W 118°13'0 0.1
2018-Jun-05 20:30N 33°45' W 118°13'1 2.0
2018-Jun-05 20:00N 33°45' W 118°15'1 1.9
2018-Jun-05 19:30N 33°45' W 118°13'0 0.1
2018-Jun-05 19:00N 33°45' W 118°13'0 0.1
2018-Jun-05 18:30N 33°45' W 118°14'0 0.2
2018-Jun-05 18:00N 33°45' W 118°13'0 0.0
2018-Jun-05 17:30N 33°45' W 118°13'1 1.7
2018-Jun-05 17:00N 33°45' W 118°14'0 0.2
2018-Jun-05 16:30N 33°45' W 118°14'0 0.2
2018-Jun-05 16:00N 33°45' W 118°14'1 1.5
2018-Jun-05 15:30N 33°45' W 118°14'0 0.2
2018-Jun-05 15:00N 33°45' W 118°14'0 0.3
2018-Jun-05 14:30N 33°45' W 118°13'0 0.0
2018-Jun-05 00:14N 33°45' W 118°13'0 0.3
2018-Jun-05 00:01N 33°45' W 118°13'0 0.1
2018-Jun-04 23:30N 33°45' W 118°14'0 0.3
2018-Jun-04 23:00N 33°45' W 118°13'0 0.0
2018-Jun-04 22:30N 33°45' W 118°13'0 0.1
2018-Jun-04 22:01N 33°45' W 118°13'0 0.1
2018-Jun-04 21:31N 33°45' W 118°13'0 0.2
2018-Jun-04 21:00N 33°45' W 118°13'0 0.2
2018-Jun-04 20:31N 33°45' W 118°13'0 0.0
2018-Jun-04 20:00N 33°45' W 118°13'0 0.1
2018-Jun-04 19:30N 33°45' W 118°13'0 0.0
2018-Jun-04 19:00N 33°45' W 118°13'0 0.1
2018-Jun-04 18:29N 33°45' W 118°13'0 0.4
2018-Jun-04 18:01N 33°45' W 118°13'0 0.3
2018-Jun-04 17:26N 33°45' W 118°13'0 0.0
2018-Jun-04 16:56N 33°45' W 118°13'0 0.1
2018-Jun-04 16:31N 33°45' W 118°13'0 0.0
2018-Jun-04 15:59N 33°45' W 118°13'0 0.0
2018-Jun-04 15:31N 33°45' W 118°13'0 0.1
2018-Jun-04 15:00N 33°45' W 118°13'0 0.0
2018-Jun-04 14:28N 33°45' W 118°13'  
Track history (hours):
 
Tides and Currents Weather Stations Pressure Air Temp Water Temp Dewpoint Dewpoint Depression Visibility Wind Speed Wind Dir Waves Ship Positions

Pup

Owner: MANSON CONSTRUCTION CO., SEATTLE, WA. More information available from US FCC via Universal Licensing System and Coast Guard Vessel Documentation Center.

Last reported at 2018-Jun-13 21:12 UTC. Time now 2018-Jun-18 19:05 UTC.
Position N 33°47' W 118°15'.

Length 13 m.

Type: Towing. MMSI: 366870730.

Date/timePositionNaut miles runAvg speedWind from/ knotsBaromVisibWave heightAir tempDewpointWater temp
2018-Jun-13 21:12N 33°47' W 118°15'0 0.0
2018-Jun-13 21:00N 33°47' W 118°15'0 0.0
2018-Jun-13 20:30N 33°47' W 118°15'0 0.0
2018-Jun-13 20:00N 33°47' W 118°15'0 0.0
2018-Jun-13 19:30N 33°47' W 118°15'0 0.0
2018-Jun-13 19:00N 33°47' W 118°15'1 2.5
2018-Jun-13 18:30N 33°46' W 118°13'1 1.6
2018-Jun-13 18:00N 33°45' W 118°13'3 5.3
2018-Jun-13 17:30N 33°43' W 118°15'2 3.2
2018-Jun-13 17:00N 33°44' W 118°15'0 0.2
2018-Jun-13 16:30N 33°44' W 118°15'2 3.2
2018-Jun-13 16:00N 33°43' W 118°15'3 5.4
2018-Jun-13 15:30N 33°45' W 118°13'0 0.0
2018-Jun-12 23:24N 33°45' W 118°13'0 0.0
2018-Jun-12 23:00N 33°45' W 118°13'0 0.0
2018-Jun-12 22:31N 33°45' W 118°13'0 0.0
2018-Jun-12 22:01N 33°45' W 118°13'0 0.1
2018-Jun-12 21:31N 33°45' W 118°13'0 0.0
2018-Jun-12 21:00N 33°45' W 118°13'0 0.1
2018-Jun-12 20:31N 33°45' W 118°13'0 0.0
2018-Jun-12 20:00N 33°45' W 118°13'0 0.0
2018-Jun-12 19:28N 33°45' W 118°13'0 0.0
2018-Jun-12 19:00N 33°45' W 118°13'0 0.1
2018-Jun-12 18:31N 33°45' W 118°13'0 0.0
2018-Jun-12 18:00N 33°45' W 118°13'2 4.5
2018-Jun-12 17:30N 33°43' W 118°14'2 3.1
2018-Jun-12 17:01N 33°45' W 118°15'0 0.1
2018-Jun-12 16:31N 33°45' W 118°15'0 0.4
2018-Jun-12 16:00N 33°44' W 118°15'2 3.1
2018-Jun-12 15:31N 33°43' W 118°15'3 5.2
2018-Jun-12 15:01N 33°45' W 118°13'0 0.1
2018-Jun-12 14:31N 33°45' W 118°13'0 0.0
2018-Jun-12 02:43N 33°45' W 118°13'0 0.0
2018-Jun-12 02:30N 33°45' W 118°13'0 0.0
2018-Jun-12 02:00N 33°45' W 118°13'0 0.0
2018-Jun-12 01:29N 33°45' W 118°13'0 0.0
2018-Jun-12 01:00N 33°45' W 118°13'0 0.1
2018-Jun-12 00:30N 33°45' W 118°13'0 0.1
2018-Jun-12 00:00N 33°45' W 118°13'0 0.1
2018-Jun-11 23:30N 33°45' W 118°13'0 0.0
2018-Jun-11 23:00N 33°45' W 118°13'0 0.0
2018-Jun-11 22:30N 33°45' W 118°13'0 0.4
2018-Jun-11 22:00N 33°45' W 118°13'0 0.4
2018-Jun-11 21:31N 33°45' W 118°13'0 0.0
2018-Jun-11 21:00N 33°45' W 118°13'0 0.1
2018-Jun-11 20:30N 33°45' W 118°13'0 0.0
2018-Jun-11 20:00N 33°45' W 118°13'1 2.0
2018-Jun-11 19:30N 33°45' W 118°15'0 0.0
2018-Jun-11 19:00N 33°45' W 118°15'0 0.3
2018-Jun-11 18:30N 33°45' W 118°15'0 0.2
2018-Jun-11 18:01N 33°45' W 118°14'0 0.2
2018-Jun-11 17:30N 33°45' W 118°15'0 0.1
2018-Jun-11 17:00N 33°45' W 118°15'1 2.0
2018-Jun-11 16:30N 33°45' W 118°13'0 0.0
2018-Jun-11 16:00N 33°45' W 118°13'0 0.0
2018-Jun-11 15:30N 33°45' W 118°13'0 0.0
2018-Jun-11 15:00N 33°45' W 118°13'0 0.0
2018-Jun-10 19:40N 33°45' W 118°13'0 0.0
2018-Jun-10 19:30N 33°45' W 118°13'0 0.2
2018-Jun-10 19:00N 33°45' W 118°14'0 0.0
2018-Jun-10 18:30N 33°45' W 118°14'0 0.2
2018-Jun-10 18:00N 33°45' W 118°13'0 0.0
2018-Jun-10 17:30N 33°45' W 118°13'1 1.1
2018-Jun-10 17:00N 33°45' W 118°14'1 1.1
2018-Jun-10 16:30N 33°45' W 118°13'0 0.0
2018-Jun-10 16:00N 33°45' W 118°13'0 0.0
2018-Jun-10 15:30N 33°45' W 118°13'0 0.3
2018-Jun-10 15:00N 33°45' W 118°14'0 0.5
2018-Jun-10 14:29N 33°45' W 118°13'0 0.0
2018-Jun-09 22:50N 33°45' W 118°13'0 0.4
2018-Jun-09 22:30N 33°45' W 118°13'0 0.2
2018-Jun-09 22:00N 33°45' W 118°13'0 0.0
2018-Jun-09 21:30N 33°45' W 118°13'0 0.4
2018-Jun-09 20:59N 33°45' W 118°14'0 0.2
2018-Jun-09 20:30N 33°45' W 118°13'0 0.1
2018-Jun-09 20:00N 33°45' W 118°13'0 0.0
2018-Jun-09 19:30N 33°45' W 118°13'0 0.0
2018-Jun-09 19:00N 33°45' W 118°13'0 0.2
2018-Jun-09 18:30N 33°45' W 118°14'0 0.2
2018-Jun-09 17:59N 33°45' W 118°13'0 0.0
2018-Jun-09 17:30N 33°45' W 118°13'0 0.0
2018-Jun-09 17:00N 33°45' W 118°13'0 0.0
2018-Jun-09 16:28N 33°45' W 118°13'0 0.2
2018-Jun-09 16:00N 33°45' W 118°14'0 0.2
2018-Jun-09 15:30N 33°45' W 118°13'0 0.0
2018-Jun-08 23:28N 33°45' W 118°13'0 0.4
2018-Jun-08 23:00N 33°45' W 118°14'1 1.4
2018-Jun-08 22:30N 33°45' W 118°14'1 1.8
2018-Jun-08 22:00N 33°45' W 118°13'0 0.0
2018-Jun-08 21:30N 33°45' W 118°13'1 2.0
2018-Jun-08 21:00N 33°45' W 118°15'0 0.2
2018-Jun-08 20:30N 33°45' W 118°14'0 0.1
2018-Jun-08 20:00N 33°45' W 118°14'0 0.0
2018-Jun-08 19:30N 33°45' W 118°14'1 2.0
2018-Jun-08 19:00N 33°45' W 118°13'1 1.1
2018-Jun-08 18:30N 33°45' W 118°14'0 0.9
2018-Jun-08 17:57N 33°45' W 118°14'1 1.5
2018-Jun-08 17:30N 33°45' W 118°14'0 0.9
2018-Jun-08 17:00N 33°45' W 118°13'1 2.1
2018-Jun-08 16:30N 33°45' W 118°14'0 0.9
2018-Jun-08 16:00N 33°45' W 118°14'1 1.1
2018-Jun-08 15:30N 33°45' W 118°13'0 0.0
2018-Jun-08 00:49N 33°45' W 118°13'0 0.2
2018-Jun-08 00:30N 33°45' W 118°13'1 1.1
2018-Jun-08 00:00N 33°45' W 118°14'0 0.8
2018-Jun-07 23:30N 33°45' W 118°15'1 1.9
2018-Jun-07 23:00N 33°45' W 118°13'0 0.1
2018-Jun-07 22:02N 33°45' W 118°13'0 4.4
2018-Jun-07 21:59N 33°45' W 118°14'1 1.8
2018-Jun-07 21:30N 33°45' W 118°15'0 0.0
2018-Jun-07 21:00N 33°45' W 118°15'1 1.9
2018-Jun-07 20:29N 33°45' W 118°13'0 0.1
2018-Jun-07 19:59N 33°45' W 118°13'0 0.1
2018-Jun-07 19:30N 33°45' W 118°13'0 0.1
2018-Jun-07 19:00N 33°45' W 118°13'0 0.1
2018-Jun-07 18:30N 33°45' W 118°13'0 0.2
2018-Jun-07 18:00N 33°45' W 118°14'0 0.0
2018-Jun-07 15:21N 33°45' W 118°13'1 2.1
2018-Jun-07 15:01N 33°45' W 118°14'1 0.0
2018-Jun-06 23:10N 33°45' W 118°13'0 0.4
2018-Jun-06 22:59N 33°45' W 118°13'0 0.0
2018-Jun-06 22:31N 33°45' W 118°13'0 0.5
2018-Jun-06 22:00N 33°45' W 118°14'0 0.2
2018-Jun-06 21:30N 33°45' W 118°14'0 0.0
2018-Jun-06 21:00N 33°45' W 118°14'0 0.0
2018-Jun-06 20:30N 33°45' W 118°14'1 1.6
2018-Jun-06 20:00N 33°45' W 118°14'1 1.6
2018-Jun-06 19:30N 33°45' W 118°14'1 1.8
2018-Jun-06 19:00N 33°45' W 118°14'0 0.2
2018-Jun-06 18:31N 33°45' W 118°14'1 1.7
2018-Jun-06 18:00N 33°45' W 118°14'0 0.9
2018-Jun-06 17:30N 33°45' W 118°14'0 0.9
2018-Jun-06 17:01N 33°45' W 118°14'0 0.0
2018-Jun-06 16:28N 33°45' W 118°14'1 1.8
2018-Jun-06 16:01N 33°45' W 118°13'0 0.1
2018-Jun-06 15:29N 33°45' W 118°14'0 0.0
2018-Jun-06 15:01N 33°45' W 118°14'0 0.0
2018-Jun-06 00:40N 33°45' W 118°13'1 5.5
2018-Jun-06 00:30N 33°45' W 118°14'0 0.5
2018-Jun-06 00:00N 33°45' W 118°15'0 0.3
2018-Jun-05 23:30N 33°45' W 118°14'0 0.3
2018-Jun-05 23:00N 33°45' W 118°15'0 0.4
2018-Jun-05 22:30N 33°45' W 118°14'1 1.8
2018-Jun-05 21:59N 33°45' W 118°13'0 0.1
2018-Jun-05 21:30N 33°45' W 118°13'0 0.1
2018-Jun-05 21:00N 33°45' W 118°13'0 0.1
2018-Jun-05 20:30N 33°45' W 118°13'1 2.0
2018-Jun-05 20:00N 33°45' W 118°15'1 1.9
2018-Jun-05 19:30N 33°45' W 118°13'0 0.1
2018-Jun-05 19:00N 33°45' W 118°13'0 0.1
2018-Jun-05 18:30N 33°45' W 118°14'0 0.2
2018-Jun-05 18:00N 33°45' W 118°13'0 0.0
2018-Jun-05 17:30N 33°45' W 118°13'1 1.7
2018-Jun-05 17:00N 33°45' W 118°14'0 0.2
2018-Jun-05 16:30N 33°45' W 118°14'0 0.2
2018-Jun-05 16:00N 33°45' W 118°14'1 1.5
2018-Jun-05 15:30N 33°45' W 118°14'0 0.2
2018-Jun-05 15:00N 33°45' W 118°14'0 0.3
2018-Jun-05 14:30N 33°45' W 118°13'0 0.0
2018-Jun-05 00:14N 33°45' W 118°13'0 0.3
2018-Jun-05 00:01N 33°45' W 118°13'0 0.1
2018-Jun-04 23:30N 33°45' W 118°14'0 0.3
2018-Jun-04 23:00N 33°45' W 118°13'0 0.0
2018-Jun-04 22:30N 33°45' W 118°13'0 0.1
2018-Jun-04 22:01N 33°45' W 118°13'0 0.1
2018-Jun-04 21:31N 33°45' W 118°13'0 0.2
2018-Jun-04 21:00N 33°45' W 118°13'0 0.2
2018-Jun-04 20:31N 33°45' W 118°13'0 0.0
2018-Jun-04 20:00N 33°45' W 118°13'0 0.1
2018-Jun-04 19:30N 33°45' W 118°13'0 0.0
2018-Jun-04 19:00N 33°45' W 118°13'0 0.1
2018-Jun-04 18:29N 33°45' W 118°13'0 0.4
2018-Jun-04 18:01N 33°45' W 118°13'0 0.3
2018-Jun-04 17:26N 33°45' W 118°13'0 0.0
2018-Jun-04 16:56N 33°45' W 118°13'0 0.1
2018-Jun-04 16:31N 33°45' W 118°13'0 0.0
2018-Jun-04 15:59N 33°45' W 118°13'0 0.0
2018-Jun-04 15:31N 33°45' W 118°13'0 0.1
2018-Jun-04 15:00N 33°45' W 118°13'0 0.0
2018-Jun-04 14:28N 33°45' W 118°13'  

Dump ship's entire track history